Time;durP1;ratioP1;P1;durP2;ratioP2;P2;SDS_P1;SDS_P2;PMS_P1;PMS_P2;Temp;Humidity;BMP_temperature;BMP_pressure;BME280_temperature;BME280_humidity;BME280_pressure;Samples;Min_cycle;Max_cycle;Signal;HPM_P1;HPM_P2
2023/05/22 00:01:48;;;;;;;13.45;12.05;;;19.60;99.90;;;;;;4994919;28;20549;-51
2023/05/22 00:04:20;;;;;;;15.48;12.15;;;19.60;99.90;;;;;;4996615;28;20019;-50
2023/05/22 00:06:46;;;;;;;14.75;12.55;;;19.60;99.90;;;;;;4995461;28;20049;-50
2023/05/22 00:09:12;;;;;;;15.90;12.38;;;19.70;99.90;;;;;;4996652;28;20018;-47
2023/05/22 00:11:38;;;;;;;15.85;13.50;;;19.70;99.90;;;;;;4995066;28;20034;-49
2023/05/22 00:14:04;;;;;;;14.93;13.13;;;19.60;99.90;;;;;;4996311;28;20022;-50
2023/05/22 00:16:30;;;;;;;16.90;13.75;;;19.50;99.90;;;;;;4996597;28;20034;-50
2023/05/22 00:18:56;;;;;;;14.60;13.02;;;19.50;99.90;;;;;;4994782;28;20018;-51
2023/05/22 00:21:23;;;;;;;15.77;13.95;;;19.50;99.90;;;;;;4996617;28;20493;-48
2023/05/22 00:23:48;;;;;;;14.63;13.07;;;19.30;99.90;;;;;;4996244;28;20034;-48
2023/05/22 00:26:15;;;;;;;15.93;13.52;;;19.30;99.90;;;;;;4995552;28;20030;-49
2023/05/22 00:28:41;;;;;;;16.33;14.25;;;19.20;99.90;;;;;;4996245;28;20026;-47
2023/05/22 00:31:07;;;;;;;16.00;14.10;;;19.20;99.90;;;;;;4996496;28;20030;-50
2023/05/22 00:33:33;;;;;;;18.08;15.30;;;19.10;99.90;;;;;;4996697;28;20486;-50
2023/05/22 00:35:58;;;;;;;15.85;14.13;;;19.00;99.90;;;;;;4996316;28;20026;-48
2023/05/22 00:38:33;;;;;;;21.42;15.00;;;19.00;99.90;;;;;;4995057;28;20125;-48
2023/05/22 00:40:59;;;;;;;17.88;15.80;;;18.90;99.90;;;;;;4997355;28;20093;-47
2023/05/22 00:43:26;;;;;;;17.63;13.00;;;18.90;99.90;;;;;;4996752;28;20026;-50
2023/05/22 00:45:52;;;;;;;20.05;15.95;;;18.90;99.90;;;;;;4996893;28;20521;-49
2023/05/22 00:48:19;;;;;;;18.63;14.40;;;18.80;99.90;;;;;;4995199;28;20034;-48
2023/05/22 00:50:44;;;;;;;20.83;14.45;;;18.70;99.90;;;;;;4997769;28;20406;-50
2023/05/22 00:53:10;;;;;;;19.27;14.73;;;18.70;99.90;;;;;;4996278;28;20030;-46
2023/05/22 00:55:36;;;;;;;20.42;15.85;;;18.70;99.90;;;;;;4997836;28;20462;-46
2023/05/22 00:58:08;;;;;;;17.08;14.80;;;18.70;99.90;;;;;;4997424;28;20030;-46
2023/05/22 01:00:38;;;;;;;20.63;15.38;;;18.70;99.90;;;;;;4997288;28;20026;-47
2023/05/22 01:03:06;;;;;;;17.13;14.88;;;18.70;99.90;;;;;;4997808;28;20027;-48
2023/05/22 01:05:33;;;;;;;17.60;14.45;;;18.70;99.90;;;;;;4980661;28;20453;-46
2023/05/22 01:07:58;;;;;;;18.67;15.35;;;18.60;99.90;;;;;;4998269;28;20022;-46
2023/05/22 01:10:25;;;;;;;17.40;14.65;;;18.60;99.90;;;;;;4996463;28;20038;-49
2023/05/22 01:13:05;;;;;;;16.73;14.57;;;18.60;99.90;;;;;;4997420;28;20399;-48
2023/05/22 01:15:34;;;;;;;15.77;14.15;;;18.60;99.90;;;;;;4995405;28;20084;-47
2023/05/22 01:18:28;;;;;;;19.27;14.23;;;18.50;99.90;;;;;;4996972;28;20030;-47
2023/05/22 01:21:03;;;;;;;18.23;14.82;;;18.50;99.90;;;;;;4996180;28;20018;-48
2023/05/22 01:23:47;;;;;;;17.17;13.93;;;18.50;99.90;;;;;;4994075;28;20034;-47
2023/05/22 01:26:41;;;;;;;18.50;13.70;;;18.60;99.90;;;;;;5000057;28;20157;-52
2023/05/22 01:29:41;;;;;;;16.33;13.70;;;18.60;99.90;;;;;;4984897;28;20114;-48
2023/05/22 01:32:09;;;;;;;17.95;13.80;;;18.60;99.90;;;;;;5000281;28;20022;-50
2023/05/22 01:34:37;;;;;;;14.85;13.35;;;18.60;99.90;;;;;;4996719;28;20033;-49
2023/05/22 01:37:03;;;;;;;14.75;13.10;;;18.50;99.90;;;;;;4996227;28;20154;-49
2023/05/22 01:39:30;;;;;;;16.25;14.20;;;18.50;99.90;;;;;;4995162;28;20069;-48
2023/05/22 01:41:56;;;;;;;19.02;13.55;;;18.50;99.90;;;;;;4994795;28;20397;-48
2023/05/22 01:44:22;;;;;;;15.40;13.75;;;18.60;99.90;;;;;;4993819;28;20026;-49
2023/05/22 01:46:48;;;;;;;17.40;13.88;;;18.60;99.90;;;;;;4995782;28;20022;-47
2023/05/22 01:49:14;;;;;;;16.77;14.30;;;18.60;99.90;;;;;;4995560;28;20027;-49
2023/05/22 01:51:50;;;;;;;15.25;13.27;;;18.70;99.90;;;;;;4993592;28;20486;-48
2023/05/22 01:54:34;;;;;;;18.90;13.60;;;18.60;99.90;;;;;;4995517;28;20031;-52
2023/05/22 01:57:11;;;;;;;16.88;14.32;;;18.60;99.90;;;;;;4993970;28;20056;-52
2023/05/22 01:59:51;;;;;;;16.20;12.93;;;18.60;99.90;;;;;;4995015;28;20026;-49
2023/05/22 02:02:18;;;;;;;17.75;14.45;;;18.60;99.90;;;;;;4994737;28;20049;-50
2023/05/22 02:04:50;;;;;;;16.27;13.35;;;18.60;99.90;;;;;;4995081;28;20053;-48
2023/05/22 02:07:19;;;;;;;14.00;12.10;;;18.60;99.90;;;;;;4995129;28;20030;-53
2023/05/22 02:09:46;;;;;;;16.20;12.65;;;18.60;99.90;;;;;;4994617;28;20037;-52
2023/05/22 02:12:12;;;;;;;14.02;12.30;;;18.70;99.90;;;;;;4996821;28;20496;-49
2023/05/22 02:14:38;;;;;;;14.68;13.18;;;18.50;99.90;;;;;;4996017;28;20041;-48
2023/05/22 02:17:04;;;;;;;15.10;13.52;;;18.50;99.90;;;;;;4997718;28;20023;-49
2023/05/22 02:19:30;;;;;;;15.02;12.27;;;18.50;99.90;;;;;;4996114;28;20030;-48
2023/05/22 02:21:55;;;;;;;17.90;12.75;;;18.40;99.90;;;;;;4994198;28;20030;-47
2023/05/22 02:24:22;;;;;;;16.15;12.40;;;18.50;99.90;;;;;;4995284;28;20582;-53
2023/05/22 02:26:47;;;;;;;14.43;12.27;;;18.60;99.90;;;;;;4997969;28;20026;-52
2023/05/22 02:29:13;;;;;;;13.45;11.75;;;18.60;99.90;;;;;;4997411;28;20037;-50
2023/05/22 02:31:38;;;;;;;14.52;12.18;;;18.60;99.90;;;;;;4998495;28;20398;-49
2023/05/22 02:34:05;;;;;;;15.20;12.20;;;18.60;99.90;;;;;;4998489;28;20080;-50
2023/05/22 02:36:31;;;;;;;13.75;12.32;;;18.60;99.90;;;;;;4999161;28;20031;-50
2023/05/22 02:38:57;;;;;;;14.85;12.18;;;18.60;99.90;;;;;;4997740;28;20053;-52
2023/05/22 02:41:23;;;;;;;13.38;11.98;;;18.60;99.90;;;;;;4998207;28;20061;-50
2023/05/22 02:43:48;;;;;;;14.85;11.85;;;18.60;99.90;;;;;;4997878;28;20486;-50
2023/05/22 02:46:14;;;;;;;15.93;12.40;;;18.60;99.90;;;;;;4998475;28;20023;-49
2023/05/22 02:48:39;;;;;;;13.40;11.65;;;18.60;99.90;;;;;;4998155;28;20057;-51
2023/05/22 02:51:05;;;;;;;14.88;13.05;;;18.50;99.90;;;;;;4998391;28;20458;-51
2023/05/22 02:53:32;;;;;;;15.73;11.82;;;18.60;99.90;;;;;;4998349;28;20026;-47
2023/05/22 02:55:57;;;;;;;13.82;12.25;;;18.60;99.90;;;;;;4998720;28;20049;-48
2023/05/22 02:58:24;;;;;;;16.00;12.77;;;18.60;99.90;;;;;;4998001;28;20049;-48
2023/05/22 03:00:51;;;;;;;14.23;12.38;;;18.60;99.90;;;;;;4998538;28;20038;-52
2023/05/22 03:03:17;;;;;;;17.35;12.95;;;18.50;99.90;;;;;;4997943;28;20030;-52
2023/05/22 03:05:43;;;;;;;16.85;12.23;;;18.50;99.90;;;;;;4997924;28;20450;-49
2023/05/22 03:08:09;;;;;;;14.50;13.00;;;18.40;99.90;;;;;;4998354;28;20514;-50
2023/05/22 03:10:34;;;;;;;14.13;12.43;;;18.30;99.90;;;;;;4998034;28;20034;-49
2023/05/22 03:13:00;;;;;;;17.63;12.32;;;18.10;99.90;;;;;;4980416;28;20100;-51
2023/05/22 03:15:25;;;;;;;13.32;11.93;;;18.00;99.90;;;;;;4998160;28;20019;-52
2023/05/22 03:17:51;;;;;;;12.90;11.50;;;17.80;99.90;;;;;;4998423;28;20459;-51
2023/05/22 03:20:16;;;;;;;14.65;12.85;;;17.70;99.90;;;;;;4998340;28;20026;-50
2023/05/22 03:22:43;;;;;;;19.27;13.25;;;17.60;99.90;;;;;;4998317;28;20034;-49
2023/05/22 03:25:09;;;;;;;15.68;14.07;;;17.50;99.90;;;;;;4998439;28;20505;-49
2023/05/22 03:27:35;;;;;;;16.40;12.55;;;17.40;99.90;;;;;;4998546;28;20030;-48
2023/05/22 03:30:01;;;;;;;14.32;12.48;;;17.30;99.90;;;;;;4996950;28;20122;-48
2023/05/22 03:32:27;;;;;;;15.82;13.32;;;17.30;99.90;;;;;;4997068;28;20030;-47
2023/05/22 03:34:52;;;;;;;17.45;13.70;;;17.20;99.90;;;;;;4998495;28;20470;-47
2023/05/22 03:37:18;;;;;;;15.55;12.75;;;17.10;99.90;;;;;;4997882;28;20026;-49
2023/05/22 03:39:43;;;;;;;14.07;12.60;;;17.10;99.90;;;;;;4998331;28;20060;-48
2023/05/22 03:42:09;;;;;;;13.68;12.20;;;17.10;99.90;;;;;;4998050;28;20034;-47
2023/05/22 03:44:34;;;;;;;17.85;14.10;;;17.00;99.90;;;;;;4997282;28;20026;-52
2023/05/22 03:47:00;;;;;;;16.98;11.35;;;17.00;99.90;;;;;;4998466;28;20037;-46
2023/05/22 03:49:25;;;;;;;19.25;13.32;;;17.00;99.90;;;;;;4997563;28;20037;-47
2023/05/22 03:51:51;;;;;;;15.73;12.95;;;17.00;99.90;;;;;;4997009;28;20049;-49
2023/05/22 03:54:17;;;;;;;17.58;12.75;;;17.00;99.90;;;;;;4997939;28;20083;-46
2023/05/22 03:56:42;;;;;;;15.20;13.20;;;17.00;99.90;;;;;;4999265;28;20034;-48
2023/05/22 03:59:08;;;;;;;18.75;13.25;;;17.10;99.90;;;;;;4998329;28;20023;-45
2023/05/22 04:01:34;;;;;;;16.05;13.73;;;17.10;99.90;;;;;;4998596;28;20022;-49
2023/05/22 04:04:00;;;;;;;17.17;14.52;;;17.30;99.90;;;;;;4998346;28;20101;-52
2023/05/22 04:06:26;;;;;;;16.58;13.75;;;17.40;99.90;;;;;;4998979;28;20498;-50
2023/05/22 04:08:51;;;;;;;17.38;13.65;;;17.50;99.90;;;;;;4998667;28;20030;-49
2023/05/22 04:11:17;;;;;;;14.90;13.27;;;17.50;99.90;;;;;;4997441;28;20026;-47
2023/05/22 04:13:43;;;;;;;15.05;13.32;;;17.50;99.90;;;;;;4998486;28;20107;-50
2023/05/22 04:16:09;;;;;;;17.95;13.15;;;17.50;99.90;;;;;;4999244;28;20027;-50
2023/05/22 04:18:35;;;;;;;15.95;13.13;;;17.50;99.90;;;;;;4998969;28;20041;-49
2023/05/22 04:21:01;;;;;;;20.10;14.13;;;17.50;99.90;;;;;;4998282;28;20038;-52
2023/05/22 04:23:27;;;;;;;25.35;15.27;;;17.50;99.90;;;;;;4996928;28;20019;-47
2023/05/22 04:25:52;;;;;;;18.95;14.35;;;17.60;99.90;;;;;;4996845;28;20027;-47
2023/05/22 04:28:21;;;;;;;19.02;14.88;;;17.70;99.90;;;;;;4995969;28;20049;-51
2023/05/22 04:30:47;;;;;;;22.23;13.68;;;17.70;99.90;;;;;;4994295;28;20037;-51
2023/05/22 04:33:13;;;;;;;18.83;15.07;;;17.80;99.90;;;;;;4996007;28;20379;-50
2023/05/22 04:35:39;;;;;;;20.33;15.52;;;17.90;99.90;;;;;;4996966;28;20029;-50
2023/05/22 04:38:05;;;;;;;17.52;14.45;;;17.90;99.90;;;;;;4997387;28;20023;-47
2023/05/22 04:40:32;;;;;;;20.85;15.00;;;18.00;99.90;;;;;;4997392;28;20022;-50
2023/05/22 04:42:58;;;;;;;20.35;14.90;;;18.10;99.90;;;;;;4996978;28;20022;-47
2023/05/22 04:45:24;;;;;;;18.38;14.75;;;18.10;99.90;;;;;;4997091;28;20026;-47
2023/05/22 04:47:54;;;;;;;20.42;13.85;;;18.20;99.90;;;;;;4995506;28;20419;-47
2023/05/22 04:50:20;;;;;;;16.80;12.30;;;18.30;99.90;;;;;;4996941;28;20030;-47
2023/05/22 04:52:46;;;;;;;16.25;13.40;;;18.40;99.90;;;;;;4997550;28;20090;-48
2023/05/22 04:55:12;;;;;;;14.98;12.77;;;18.50;99.90;;;;;;4997872;28;20343;-50
2023/05/22 04:57:39;;;;;;;17.00;14.45;;;18.70;99.90;;;;;;4997950;28;20094;-48
2023/05/22 05:00:07;;;;;;;16.70;13.57;;;18.80;99.90;;;;;;4997935;28;20046;-48
2023/05/22 05:02:32;;;;;;;14.60;12.98;;;19.10;99.90;;;;;;4998256;28;20402;-48
2023/05/22 05:04:58;;;;;;;15.88;13.73;;;19.40;99.90;;;;;;4997907;28;20037;-50
2023/05/22 05:07:23;;;;;;;16.50;14.15;;;19.80;99.90;;;;;;4997419;28;20030;-48
2023/05/22 05:09:49;;;;;;;16.42;14.10;;;20.10;99.90;;;;;;4998454;28;20033;-47
2023/05/22 05:12:15;;;;;;;17.80;12.65;;;20.50;99.90;;;;;;4998443;28;20398;-48
2023/05/22 05:14:41;;;;;;;17.33;13.52;;;21.00;99.90;;;;;;4999296;28;20028;-48
2023/05/22 05:17:06;;;;;;;15.68;13.70;;;21.50;99.90;;;;;;4998303;28;20033;-47
2023/05/22 05:19:33;;;;;;;16.67;13.45;;;22.10;99.90;;;;;;4999176;28;20034;-47
2023/05/22 05:21:59;;;;;;;14.93;13.13;;;22.70;99.90;;;;;;4998623;28;20105;-51
2023/05/22 05:24:25;;;;;;;14.52;12.95;;;23.20;99.90;;;;;;4996029;28;20076;-47
2023/05/22 05:26:50;;;;;;;14.38;12.75;;;23.60;99.90;;;;;;4996102;28;20439;-47
2023/05/22 05:29:16;;;;;;;14.68;13.07;;;23.80;99.90;;;;;;4994691;28;20394;-51
2023/05/22 05:31:42;;;;;;;15.23;12.00;;;23.90;99.90;;;;;;4996215;28;20474;-50
2023/05/22 05:34:07;;;;;;;14.82;12.63;;;23.70;99.90;;;;;;4995661;28;20456;-48
2023/05/22 05:36:33;;;;;;;14.88;13.48;;;24.20;99.60;;;;;;4996388;28;20027;-50
2023/05/22 05:38:59;;;;;;;15.18;13.57;;;24.40;99.10;;;;;;4995920;28;20068;-49
2023/05/22 05:41:25;;;;;;;16.48;13.60;;;24.20;99.30;;;;;;4995051;28;20057;-49
2023/05/22 05:43:51;;;;;;;16.98;12.77;;;24.00;99.90;;;;;;4996057;28;20030;-51
2023/05/22 05:46:17;;;;;;;16.60;13.30;;;24.30;99.30;;;;;;4996715;28;20032;-49
2023/05/22 05:48:42;;;;;;;14.23;12.77;;;24.30;99.10;;;;;;4996793;28;20105;-49
2023/05/22 05:51:08;;;;;;;16.38;14.27;;;24.70;98.80;;;;;;4996883;28;20398;-49
2023/05/22 05:53:35;;;;;;;14.68;13.18;;;24.70;98.80;;;;;;4996535;28;20031;-47
2023/05/22 05:56:01;;;;;;;14.60;13.02;;;24.60;98.40;;;;;;4997112;28;20053;-49
2023/05/22 05:58:27;;;;;;;15.55;13.07;;;25.00;98.60;;;;;;4996762;28;20211;-48
2023/05/22 06:00:53;;;;;;;12.32;11.02;;;25.60;97.90;;;;;;4995765;28;20375;-47
2023/05/22 06:03:19;;;;;;;15.27;13.27;;;26.00;97.10;;;;;;4995087;28;20034;-49
2023/05/22 06:05:48;;;;;;;13.90;12.48;;;26.20;96.10;;;;;;4996244;28;20034;-49
2023/05/22 06:08:14;;;;;;;12.40;11.15;;;27.10;95.30;;;;;;4996344;28;20029;-50
2023/05/22 06:10:40;;;;;;;19.13;12.07;;;27.80;95.00;;;;;;4996268;28;20026;-48
2023/05/22 06:13:05;;;;;;;12.50;11.25;;;28.50;94.00;;;;;;4996976;28;20042;-47
2023/05/22 06:15:31;;;;;;;16.90;13.38;;;29.20;93.30;;;;;;4997655;28;20030;-47
2023/05/22 06:17:56;;;;;;;14.15;12.85;;;29.90;92.20;;;;;;4996918;28;20018;-47
2023/05/22 06:20:23;;;;;;;13.77;12.38;;;29.80;91.50;;;;;;4996792;28;20106;-53
2023/05/22 06:22:50;;;;;;;14.52;12.73;;;29.00;91.80;;;;;;4997444;28;20030;-49
2023/05/22 06:25:16;;;;;;;17.27;12.55;;;28.90;91.30;;;;;;4996415;28;20050;-45
2023/05/22 06:27:41;;;;;;;14.38;12.88;;;28.00;92.80;;;;;;4994179;28;20046;-49
2023/05/22 06:30:08;;;;;;;18.02;13.20;;;27.40;93.50;;;;;;4995076;28;20046;-50
2023/05/22 06:32:33;;;;;;;14.82;13.25;;;27.50;93.00;;;;;;4994545;28;20376;-49
2023/05/22 06:34:59;;;;;;;13.80;12.35;;;27.50;93.00;;;;;;4994460;28;20172;-51
2023/05/22 06:37:25;;;;;;;13.60;12.25;;;27.90;93.20;;;;;;4993719;28;20097;-48
2023/05/22 06:39:50;;;;;;;13.23;11.60;;;28.60;92.20;;;;;;4993013;28;20254;-48
2023/05/22 06:42:16;;;;;;;14.25;12.90;;;29.30;91.60;;;;;;4993536;28;20033;-49
2023/05/22 06:44:41;;;;;;;15.73;11.80;;;29.70;91.30;;;;;;4992601;28;20121;-51
2023/05/22 06:47:07;;;;;;;14.52;12.65;;;30.30;90.60;;;;;;4993363;28;20100;-49
2023/05/22 06:49:32;;;;;;;15.00;13.50;;;30.50;90.10;;;;;;4993449;28;20035;-49
2023/05/22 06:51:58;;;;;;;14.02;11.65;;;29.80;90.00;;;;;;4993079;28;20041;-49
2023/05/22 06:54:27;;;;;;;15.38;12.77;;;29.40;91.30;;;;;;4994354;28;20053;-49
2023/05/22 06:56:53;;;;;;;14.90;11.88;;;30.00;90.60;;;;;;4994075;28;20018;-47
2023/05/22 06:59:19;;;;;;;13.07;11.13;;;30.70;89.80;;;;;;4993702;28;20081;-47
2023/05/22 07:01:45;;;;;;;13.35;12.13;;;31.30;88.80;;;;;;4993456;28;20078;-48
2023/05/22 07:04:12;;;;;;;16.27;11.95;;;31.90;87.20;;;;;;4993526;28;20077;-50
2023/05/22 07:06:40;;;;;;;12.63;11.38;;;32.30;85.30;;;;;;4993371;28;20014;-51
2023/05/22 07:09:07;;;;;;;14.65;11.05;;;32.90;84.90;;;;;;4992773;28;20019;-53
2023/05/22 07:11:33;;;;;;;12.63;11.30;;;33.10;83.50;;;;;;4993923;28;20080;-48
2023/05/22 07:14:00;;;;;;;13.57;12.20;;;33.50;83.10;;;;;;4995272;28;20022;-49
2023/05/22 07:16:25;;;;;;;12.10;10.98;;;33.70;81.80;;;;;;4996411;28;20088;-49
2023/05/22 07:18:51;;;;;;;12.52;10.73;;;33.50;81.50;;;;;;4995940;28;20027;-54
2023/05/22 07:21:17;;;;;;;12.65;11.27;;;34.20;80.90;;;;;;4996495;28;20026;-52
2023/05/22 07:23:42;;;;;;;12.35;11.07;;;34.10;79.50;;;;;;4996035;28;20045;-52
2023/05/22 07:26:08;;;;;;;14.95;12.88;;;33.20;80.20;;;;;;4996471;28;20505;-51
2023/05/22 07:28:34;;;;;;;15.82;12.50;;;33.20;80.10;;;;;;4995662;28;20037;-48
2023/05/22 07:31:00;;;;;;;16.02;12.93;;;32.60;81.90;;;;;;4996912;28;20033;-48
2023/05/22 07:33:25;;;;;;;13.35;12.05;;;32.40;82.10;;;;;;4995189;28;20038;-48
2023/05/22 07:35:51;;;;;;;12.85;11.63;;;31.70;83.40;;;;;;4997092;28;20088;-50
2023/05/22 07:38:17;;;;;;;16.83;13.65;;;31.50;82.20;;;;;;4996612;28;20395;-47
2023/05/22 07:40:42;;;;;;;15.20;10.70;;;31.40;83.40;;;;;;4995119;28;20041;-47
2023/05/22 07:43:08;;;;;;;13.82;10.15;;;31.60;84.00;;;;;;4996705;28;20034;-47
2023/05/22 07:45:34;;;;;;;12.10;10.88;;;32.30;83.80;;;;;;4995716;28;20023;-48
2023/05/22 07:48:00;;;;;;;11.50;10.30;;;33.00;81.50;;;;;;4995322;28;20030;-53
2023/05/22 07:50:26;;;;;;;18.35;11.85;;;34.00;80.20;;;;;;4994922;28;20022;-50
2023/05/22 07:52:52;;;;;;;13.32;10.27;;;34.40;79.60;;;;;;4995214;28;20482;-50
2023/05/22 07:55:17;;;;;;;10.73;9.60;;;34.80;79.60;;;;;;4995947;28;20109;-49
2023/05/22 07:57:43;;;;;;;12.00;10.90;;;34.20;79.70;;;;;;4996269;28;20018;-47
2023/05/22 08:00:12;;;;;;;11.98;10.63;;;34.00;78.20;;;;;;4997221;28;20037;-52
2023/05/22 08:02:39;;;;;;;13.18;11.85;;;33.90;77.40;;;;;;5000429;28;20057;-55
2023/05/22 08:05:06;;;;;;;10.63;8.73;;;33.50;77.90;;;;;;4998138;28;20113;-51
2023/05/22 08:07:32;;;;;;;11.88;10.80;;;33.30;78.70;;;;;;4997330;28;20100;-52
2023/05/22 08:09:58;;;;;;;12.05;11.05;;;33.30;77.40;;;;;;4996782;28;20478;-52
2023/05/22 08:12:23;;;;;;;13.38;9.75;;;33.00;77.10;;;;;;4997043;28;20037;-53
2023/05/22 08:14:49;;;;;;;12.70;10.55;;;33.00;78.10;;;;;;4995550;28;20026;-55
2023/05/22 08:17:14;;;;;;;11.75;10.10;;;33.30;77.00;;;;;;4997493;28;20064;-49
2023/05/22 08:19:40;;;;;;;12.20;9.50;;;33.30;75.60;;;;;;4978935;28;20027;-49
2023/05/22 08:22:05;;;;;;;13.50;8.90;;;33.30;76.90;;;;;;4977857;28;20027;-54
2023/05/22 08:24:31;;;;;;;11.30;10.20;;;33.60;77.40;;;;;;4977596;28;20026;-51
2023/05/22 08:26:57;;;;;;;14.00;11.13;;;33.90;76.50;;;;;;4977341;28;20485;-53
2023/05/22 08:29:23;;;;;;;12.13;10.57;;;33.80;77.00;;;;;;4986549;28;20030;-52
2023/05/22 08:31:48;;;;;;;10.80;9.65;;;33.60;76.80;;;;;;4997140;28;20030;-51
2023/05/22 08:34:14;;;;;;;11.07;9.98;;;33.30;76.80;;;;;;4997124;28;20023;-50
2023/05/22 08:36:39;;;;;;;11.23;10.13;;;33.00;77.90;;;;;;4996456;28;20401;-53
2023/05/22 08:39:06;;;;;;;12.95;10.82;;;32.70;78.90;;;;;;4996526;28;20461;-48
2023/05/22 08:41:31;;;;;;;16.17;11.25;;;32.50;80.40;;;;;;4983277;28;20033;-54
2023/05/22 08:43:57;;;;;;;13.20;11.90;;;32.10;79.70;;;;;;4978274;28;20483;-51
2023/05/22 08:46:26;;;;;;;13.52;12.20;;;31.90;80.00;;;;;;4975523;28;20478;-50
2023/05/22 08:48:56;;;;;;;13.00;11.63;;;31.30;81.20;;;;;;4975557;28;20023;-51
2023/05/22 08:51:27;;;;;;;12.88;11.57;;;31.20;82.70;;;;;;4983072;28;20027;-50
2023/05/22 08:53:55;;;;;;;17.90;14.27;;;31.10;81.50;;;;;;4993053;28;20029;-51
2023/05/22 08:56:21;;;;;;;15.35;11.63;;;30.50;81.70;;;;;;4979106;28;20034;-48
2023/05/22 08:58:47;;;;;;;14.90;10.80;;;30.10;84.10;;;;;;4993237;28;20073;-48
2023/05/22 09:01:13;;;;;;;19.45;11.93;;;30.00;85.20;;;;;;4993092;28;20459;-49
2023/05/22 09:03:38;;;;;;;15.45;11.32;;;30.20;85.20;;;;;;4993287;28;20042;-49
2023/05/22 09:06:08;;;;;;;13.60;12.27;;;30.40;84.50;;;;;;4993178;28;20383;-50
2023/05/22 09:08:33;;;;;;;13.40;11.73;;;30.40;83.70;;;;;;4993200;28;20025;-49
2023/05/22 09:10:59;;;;;;;13.23;11.15;;;30.40;83.70;;;;;;4993303;28;20363;-50
2023/05/22 09:13:26;;;;;;;19.33;13.77;;;30.10;83.40;;;;;;4992822;28;20525;-46
2023/05/22 09:15:52;;;;;;;19.60;13.63;;;29.70;84.00;;;;;;4993120;28;20049;-47
2023/05/22 09:18:18;;;;;;;13.73;12.30;;;29.10;85.60;;;;;;4992804;28;20547;-50
2023/05/22 09:20:43;;;;;;;17.20;13.20;;;28.60;85.60;;;;;;4992796;28;20133;-49
2023/05/22 09:23:20;;;;;;;14.02;12.60;;;28.20;87.60;;;;;;4982777;28;20084;-46
2023/05/22 09:25:46;;;;;;;15.55;12.75;;;27.70;88.90;;;;;;4973275;28;20015;-52
2023/05/22 09:28:12;;;;;;;13.32;12.05;;;27.40;89.50;;;;;;4975355;28;20339;-50
2023/05/22 09:30:37;;;;;;;15.85;14.25;;;27.20;90.50;;;;;;4981618;28;20437;-48
2023/05/22 09:33:07;;;;;;;13.43;11.80;;;27.10;90.90;;;;;;4993346;28;20029;-49
2023/05/22 09:35:38;;;;;;;23.17;14.98;;;26.80;91.50;;;;;;4992310;28;20034;-49
2023/05/22 09:38:04;;;;;;;22.80;18.83;;;26.80;91.30;;;;;;4991877;28;20041;-45
2023/05/22 09:40:33;;;;;;;14.30;12.80;;;26.80;91.60;;;;;;4992117;28;20026;-47
2023/05/22 09:42:59;;;;;;;12.30;11.10;;;26.70;91.50;;;;;;4984764;28;20050;-45
2023/05/22 09:45:26;;;;;;;15.05;13.55;;;26.60;92.10;;;;;;4989646;28;20108;-49
2023/05/22 09:47:52;;;;;;;15.35;13.48;;;26.60;92.10;;;;;;4992819;28;20393;-50
2023/05/22 09:50:17;;;;;;;13.65;12.32;;;26.60;91.90;;;;;;4987708;28;20030;-46
2023/05/22 09:52:44;;;;;;;17.73;13.50;;;26.50;92.00;;;;;;4991768;28;20113;-50
2023/05/22 09:55:12;;;;;;;19.63;12.35;;;26.40;92.70;;;;;;4991863;28;20030;-47
2023/05/22 09:57:45;;;;;;;14.38;12.25;;;26.20;93.10;;;;;;4992074;28;20402;-47
2023/05/22 10:00:14;;;;;;;14.73;12.65;;;26.20;93.30;;;;;;4991328;28;20117;-53
2023/05/22 10:02:46;;;;;;;14.57;13.07;;;26.10;93.40;;;;;;4990567;28;20030;-51
2023/05/22 10:05:22;;;;;;;17.35;11.43;;;26.30;93.80;;;;;;4989551;28;20023;-47
2023/05/22 10:07:54;;;;;;;17.23;14.55;;;26.30;94.70;;;;;;4992046;28;20482;-50
2023/05/22 10:10:24;;;;;;;16.52;13.73;;;26.50;93.90;;;;;;4990293;28;20033;-47
2023/05/22 10:12:50;;;;;;;12.85;11.52;;;26.60;94.10;;;;;;4989618;28;20057;-46
2023/05/22 10:15:16;;;;;;;16.92;12.35;;;26.60;94.50;;;;;;4990894;28;20026;-45
2023/05/22 10:17:43;;;;;;;16.58;12.55;;;26.70;94.20;;;;;;4991925;28;20038;-46
2023/05/22 10:20:09;;;;;;;15.45;13.85;;;26.80;94.60;;;;;;4991971;28;20101;-48
2023/05/22 10:22:36;;;;;;;14.95;13.27;;;27.00;94.80;;;;;;4991756;28;20019;-50
2023/05/22 10:25:02;;;;;;;16.38;13.07;;;27.00;94.50;;;;;;4991614;28;20054;-51
2023/05/22 10:27:28;;;;;;;12.98;11.68;;;27.00;94.30;;;;;;4991730;28;20526;-50
2023/05/22 10:30:31;;;;;;;17.33;13.10;;;26.90;94.50;;;;;;4991834;28;20102;-48
2023/05/22 10:33:13;;;;;;;18.83;13.00;;;27.00;94.50;;;;;;4984221;28;20050;-48
2023/05/22 10:35:46;;;;;;;15.55;12.15;;;26.80;94.80;;;;;;4990301;28;20037;-48
2023/05/22 10:38:36;;;;;;;16.00;12.13;;;26.70;94.60;;;;;;4991734;28;20034;-49
2023/05/22 10:41:03;;;;;;;14.70;12.43;;;26.60;95.00;;;;;;4991790;28;20430;-53
2023/05/22 10:43:31;;;;;;;16.75;12.23;;;26.40;94.60;;;;;;4991532;28;20088;-47
2023/05/22 10:46:05;;;;;;;18.58;12.82;;;26.30;94.90;;;;;;4991978;28;20015;-47
2023/05/22 10:48:45;;;;;;;14.90;12.88;;;26.30;95.00;;;;;;4995382;28;20033;-46
2023/05/22 10:51:19;;;;;;;13.63;12.18;;;26.40;94.50;;;;;;4995659;28;20403;-49
2023/05/22 10:53:57;;;;;;;12.77;11.45;;;26.30;95.30;;;;;;4995462;28;20038;-49
2023/05/22 10:56:22;;;;;;;14.75;12.15;;;26.30;95.40;;;;;;4994698;28;20112;-50
2023/05/22 10:58:56;;;;;;;13.13;11.68;;;26.30;94.60;;;;;;4994486;28;20034;-47
2023/05/22 11:01:25;;;;;;;14.35;11.10;;;26.30;95.30;;;;;;4995634;28;20030;-49
2023/05/22 11:03:59;;;;;;;14.38;12.45;;;26.30;94.40;;;;;;4986818;28;20067;-47
2023/05/22 11:06:39;;;;;;;13.20;11.75;;;26.40;95.00;;;;;;4995466;28;20539;-48
2023/05/22 11:09:23;;;;;;;13.02;11.73;;;26.40;94.70;;;;;;4989173;28;20053;-49
2023/05/22 11:12:23;;;;;;;13.27;10.40;;;26.50;94.20;;;;;;4995210;28;20027;-48
2023/05/22 11:14:53;;;;;;;13.35;12.00;;;26.50;94.00;;;;;;4991806;28;20049;-49
2023/05/22 11:17:29;;;;;;;18.70;12.52;;;26.50;93.80;;;;;;4991790;28;20023;-47
2023/05/22 11:20:05;;;;;;;16.55;13.65;;;26.50;94.40;;;;;;4990413;28;20478;-48
2023/05/22 11:22:38;;;;;;;15.82;13.07;;;26.50;94.50;;;;;;4994332;28;20033;-49
2023/05/22 11:25:15;;;;;;;19.55;14.10;;;26.40;94.40;;;;;;4995137;28;20018;-53
2023/05/22 11:27:41;;;;;;;13.75;12.25;;;26.10;94.80;;;;;;4993489;28;20022;-50
2023/05/22 11:30:08;;;;;;;16.08;14.43;;;26.20;95.30;;;;;;4991995;28;20110;-48
2023/05/22 11:32:35;;;;;;;14.27;12.80;;;26.30;95.30;;;;;;4994245;28;20632;-49
2023/05/22 11:35:03;;;;;;;20.73;13.43;;;26.40;95.50;;;;;;4993745;28;20037;-50
2023/05/22 11:37:30;;;;;;;14.00;12.50;;;26.60;94.80;;;;;;4992056;28;20072;-50
2023/05/22 11:39:59;;;;;;;19.55;12.73;;;26.60;95.10;;;;;;4989173;23;20683;-47
2023/05/22 11:42:25;;;;;;;15.93;13.60;;;26.60;95.10;;;;;;4973615;28;20069;-48
2023/05/22 11:44:51;;;;;;;15.13;11.73;;;26.60;94.60;;;;;;4970961;28;20499;-48
2023/05/22 11:47:17;;;;;;;13.48;12.18;;;26.60;94.30;;;;;;4965760;28;20103;-47
2023/05/22 11:49:42;;;;;;;14.82;12.45;;;26.60;93.70;;;;;;4973980;28;20471;-46
2023/05/22 11:52:09;;;;;;;14.85;11.45;;;26.60;94.10;;;;;;4974736;28;20034;-47
2023/05/22 11:54:35;;;;;;;15.60;12.25;;;26.60;95.10;;;;;;4974764;28;20495;-49
2023/05/22 11:57:03;;;;;;;13.77;11.60;;;26.60;95.10;;;;;;4974428;28;20030;-52
2023/05/22 11:59:29;;;;;;;15.75;12.23;;;26.70;94.60;;;;;;4974411;28;20116;-50
2023/05/22 12:01:54;;;;;;;12.52;11.32;;;26.50;94.90;;;;;;4974515;28;20015;-46
2023/05/22 12:04:21;;;;;;;13.70;11.85;;;26.60;95.10;;;;;;4974926;28;20110;-51
2023/05/22 12:06:47;;;;;;;15.55;13.15;;;26.50;95.70;;;;;;4975000;28;20094;-47
2023/05/22 12:09:13;;;;;;;17.08;12.70;;;26.50;94.70;;;;;;4974375;28;20172;-46
2023/05/22 12:11:38;;;;;;;11.85;10.65;;;26.50;94.60;;;;;;4973016;28;20030;-48
2023/05/22 12:14:04;;;;;;;13.35;11.57;;;26.60;94.70;;;;;;4974539;28;20094;-48
2023/05/22 12:16:35;;;;;;;13.52;12.13;;;26.70;95.10;;;;;;4974651;28;20542;-50
2023/05/22 12:19:05;;;;;;;14.00;11.65;;;26.70;93.70;;;;;;4974203;28;20110;-49
2023/05/22 12:21:31;;;;;;;13.75;12.35;;;26.60;93.80;;;;;;4975117;28;20050;-49
2023/05/22 12:23:56;;;;;;;14.00;11.55;;;26.60;93.80;;;;;;4974665;28;20035;-46
2023/05/22 12:26:22;;;;;;;14.35;11.38;;;26.60;93.80;;;;;;4973500;28;20027;-49
2023/05/22 12:28:52;;;;;;;16.23;12.00;;;26.70;94.00;;;;;;4973955;28;20026;-47
2023/05/22 12:31:21;;;;;;;15.18;11.65;;;26.70;93.90;;;;;;4973853;28;20033;-46